Wednesday, December 12, 2018, 10:56 PM EST
Back to Local

KBED, Bedford Hanscom Field

Location: Concord, MA, United States Lat: 42.467
Local Time: 10:56 PM EST ( 3:56 GMT) Lon: -71.3
Time Zone: US/Eastern Elev: 134 ft

Show me the last for .
Show Decoded

2018-12-12 21:56 METAR KBED 130256Z 34003KT 10SM CLR M05/M16 A3031 RMK AO2 SLP279 T10501156 53026
                 =
2018-12-12 20:56 METAR KBED 130156Z 36006KT 10SM CLR M05/M16 A3027 RMK AO2 SLP267 T10501156 =
2018-12-12 19:56 METAR KBED 130056Z 35008KT 10SM CLR M03/M16 A3024 RMK AO2 SLP257 T10331156 =
2018-12-12 18:56 METAR KBED 122356Z 32009KT 10SM CLR M03/M16 A3023 RMK AO2 SLP252 T10331156 10033
                 21033 51040 =
2018-12-12 17:56 METAR KBED 122256Z 33010KT 10SM CLR M02/M16 A3019 RMK AO2 SLP240 T10221156 =
2018-12-12 16:56 METAR KBED 122156Z 34008KT 10SM CLR M01/M14 A3015 RMK AO2 SLP225 T10111139 =
2018-12-12 15:56 METAR KBED 122056Z 33009G20KT 10SM FEW055 01/M12 A3011 RMK AO2 SLP212 T00061122
                 53024 =
2018-12-12 14:56 METAR KBED 121956Z 32012G18KT 10SM SCT055 02/M11 A3007 RMK AO2 SLP199 T00221111
                 =
2018-12-12 13:56 METAR KBED 121856Z 32013G22KT 10SM SCT055 03/M12 A3005 RMK AO2 SLP191 T00281117
                 =
2018-12-12 12:56 METAR KBED 121756Z 35014G22KT 10SM SCT050 03/M11 A3004 RMK AO2 SLP186 T00281111
                 10033 21033 52008 =
2018-12-12 11:56 METAR KBED 121656Z 32016G22KT 10SM SCT050 03/M10 A3003 RMK AO2 PK WND 31026/1638
                 SLP184 T00281100 =
2018-12-12 10:56 METAR KBED 121556Z 33011G20KT 10SM FEW050 02/M08 A3002 RMK AO2 SLP181 T00221083
                 =
2018-12-12 09:56 METAR KBED 121456Z 33011KT 10SM CLR 01/M08 A3001 RMK AO2 SLP179 T00111078 51017
                 =
2018-12-12 08:56 METAR KBED 121356Z 32011KT 10SM CLR 00/M08 A3000 RMK AO2 SLP175 T00001078 =
2018-12-12 07:56 METAR KBED 121256Z 29003KT 10SM BKN080 M03/M09 A2998 RMK AO2 SLP169 T10281089 =
2018-12-12 06:56 METAR KBED 121156Z 27003KT 10SM OVC080 M03/M09 A2996 RMK AO2 SLP163 T10331094
                 11011 21044 53021 =
2018-12-12 05:56 METAR KBED 121056Z AUTO 28003KT 10SM OVC080 M03/M09 A2993 RMK AO2 SLP152
                 T10331094 =
2018-12-12 04:56 METAR KBED 120956Z AUTO 29005KT 10SM BKN080 M04/M10 A2992 RMK AO2 SLP147
                 T10391100 =
2018-12-12 03:56 METAR KBED 120856Z AUTO 29005KT 10SM CLR M04/M10 A2990 RMK AO2 SLP141 T10391100
                 51005 =
2018-12-12 02:56 METAR KBED 120756Z AUTO 30006KT 10SM SCT060 M03/M09 A2989 RMK AO2 SLP140
                 T10331094 =
2018-12-12 01:56 METAR KBED 120656Z AUTO 29004KT 10SM SCT044 OVC055 M01/M09 A2989 RMK AO2 SLP136
                 T10111089 =
2018-12-12 00:56 METAR KBED 120556Z AUTO 29004KT 10SM OVC043 M02/M09 A2988 RMK AO2 SLP135
                 T10171089 11017 21056 56015 =
2018-12-11 23:56 METAR KBED 120456Z AUTO 00000KT 10SM OVC049 M02/M07 A2989 RMK AO2 SLP137
                 T10221072 400281111 =

Support USWX by starting your Amazon purchase here.